Aérodrome :
LOGIN :

S'inscrire | Disclaimer

   EN    FR    IT 

 










Légende :    VFR   VFR Marginal   IFR   IFR Intensif   IFR Très Intensif
Visi : 
Plafond : 
>= 8 km
>= 3000ft
5 à 8 km
1000 à 3000 ft
1500m à 5 km
500 à 1000 ft
800 à 1500m
200 à 500 ft
< 800m
< 200 ft
Symboles :   Orages  Brouillard  Fortes neiges  Fortes précipitations  Vent > 20 kt
SIGMETs :   Divers  Orages  Givrage  Turbulence  Onde Orograph.  Cendres Volcan.






- Altitude de l'aérodrome : 57 ft
- Code IATA : KRS


ENCN - Kristiansand Kjevik

DERNIER METAR :
  • 270750Z 21011KT 3800 RA BR FEW002 BKN006 06/06 Q0997

METARs EXPIRÉS :
  • 270720Z 19013KT 4900 RA BR BKN009 06/05 Q0997
  • 270650Z 20016KT 4300 -RA BR BKN006 06/06 Q0998 RERA
  • 270620Z 17015G26KT 4300 -RA BR OVC005 07/07 Q0998
  • 270550Z 17015KT 3800 -RA BR OVC005 07/07 Q0998
  • 270520Z 17012KT 4000 RA BR OVC005 07/07 Q0999
  • 270450Z 17013KT 3700 RA BR OVC005 07/07 Q0999

TAF TAF ENCN
Valide du 27 à 06h jusqu'au 27 à 15h UTC


270500Z 2706/2715 18015KT 3000 -DZRA BR OVC003
TEMPO 2706/2710 20018G28KT 6000 RADZ OVC008
BECMG 2709/2711 25012KT 9999 BKN015
TEMPO 2713/2715 SHRA BKN012 SCT020CB



MET'MAP, la Météo Aéronautique d'un coup d'oeil ! - Copyright ORBIFLY Décembre 2007 - Disclaimer

ORBIFLY MET'MAP TEAM :

Programmation & Développement : Alexandra Zaïnal
Sur une idée originale de : Baudouin d'Aumeries
Assistance à la programmation : Marc-Olivier Méhu
Soutien technique & logistique : Manuel Goepfert

Contact : metmap@orbifly.com




SOURCES & CREDITS :

   NOAA